createdAt,value
2016-12-26T00:00:04.397Z,11.1
2016-12-26T00:05:04.869Z,11.1
2016-12-26T00:10:04.476Z,11.1
2016-12-26T00:15:05.014Z,11.1
2016-12-26T00:20:04.416Z,11.3
2016-12-26T00:25:04.046Z,11.3
2016-12-26T00:30:04.462Z,11.3
2016-12-26T00:35:04.205Z,11.1
2016-12-26T00:40:04.907Z,11.1
2016-12-26T00:45:04.225Z,10.8
2016-12-26T00:50:04.599Z,10.8
2016-12-26T00:55:04.061Z,10.8
2016-12-26T01:00:04.375Z,10.8
2016-12-26T01:05:04.772Z,10.8
2016-12-26T01:10:04.691Z,10.8
2016-12-26T01:15:04.008Z,10.6
2016-12-26T01:20:04.469Z,10.6
2016-12-26T01:25:04.853Z,10.8
2016-12-26T01:30:04.225Z,10.8
2016-12-26T01:35:04.784Z,10.8
2016-12-26T01:40:04.405Z,10.6
2016-12-26T01:45:04.609Z,10.6
2016-12-26T01:50:04.574Z,10.6
2016-12-26T01:55:04.319Z,10.6
2016-12-26T02:00:04.496Z,10.8
2016-12-26T02:05:03.987Z,10.8
2016-12-26T02:10:04.374Z,10.8
2016-12-26T02:15:05.004Z,10.8
2016-12-26T02:20:04.716Z,10.8
2016-12-26T02:25:04.008Z,10.8
2016-12-26T02:30:04.474Z,10.8
2016-12-26T02:35:04.149Z,10.8
2016-12-26T02:40:04.962Z,10.8
2016-12-26T02:45:04.647Z,10.8
2016-12-26T02:50:04.105Z,10.8
2016-12-26T02:55:03.963Z,10.8
2016-12-26T03:00:05.490Z,10.8
2016-12-26T03:05:08.393Z,10.8
2016-12-26T03:10:04.344Z,10.8
2016-12-26T03:15:04.239Z,10.8
2016-12-26T03:20:04.609Z,10.8
2016-12-26T03:25:04.763Z,10.8
2016-12-26T03:30:04.318Z,10.6
2016-12-26T03:35:04.392Z,10.3
2016-12-26T03:40:04.542Z,10.3
2016-12-26T03:45:04.475Z,10.3
2016-12-26T03:50:04.622Z,10.3
2016-12-26T03:55:04.575Z,10.3
2016-12-26T04:00:04.372Z,10.3
2016-12-26T04:05:05.467Z,10.1
2016-12-26T04:10:04.204Z,10.1
2016-12-26T04:15:04.140Z,10.1
2016-12-26T04:20:04.271Z,10.1
2016-12-26T04:25:04.878Z,10.1
2016-12-26T04:30:04.859Z,10.3
2016-12-26T04:35:04.474Z,10.1
2016-12-26T04:40:04.144Z,10.1
2016-12-26T04:45:04.762Z,10.1
2016-12-26T04:50:04.544Z,10.1
2016-12-26T04:55:04.005Z,10.1
2016-12-26T05:00:04.768Z,10.1
2016-12-26T05:05:04.044Z,10.1
2016-12-26T05:10:04.170Z,10.1
2016-12-26T05:15:03.945Z,10.1
2016-12-26T05:20:04.560Z,10.1
2016-12-26T05:25:04.880Z,10.0
2016-12-26T05:30:04.008Z,10.1
2016-12-26T05:35:04.473Z,10.1
2016-12-26T05:40:04.432Z,10.1
2016-12-26T05:45:04.266Z,10.0
2016-12-26T05:50:04.511Z,10.0
2016-12-26T05:55:04.659Z,10.1
2016-12-26T06:00:03.867Z,10.1
2016-12-26T06:05:04.572Z,10.0
2016-12-26T06:10:03.918Z,10.1
2016-12-26T06:15:04.684Z,10.1
2016-12-26T06:20:04.487Z,10.1
2016-12-26T06:25:04.004Z,10.1
2016-12-26T06:30:04.300Z,10.1
2016-12-26T06:35:04.210Z,10.1
2016-12-26T06:40:04.316Z,10.1
2016-12-26T06:45:04.126Z,10.1
2016-12-26T06:50:04.620Z,10.1
2016-12-26T06:55:04.318Z,10.1
2016-12-26T07:00:03.959Z,10.1
2016-12-26T07:05:04.293Z,10.1
2016-12-26T07:10:04.671Z,10.1
2016-12-26T07:15:04.632Z,10.1
2016-12-26T07:20:04.813Z,10.1
2016-12-26T07:25:04.521Z,9.1
2016-12-26T07:30:03.945Z,8.1
2016-12-26T07:35:04.509Z,7.6
2016-12-26T07:40:04.859Z,7.4
2016-12-26T07:45:04.322Z,7.1
2016-12-26T07:50:03.947Z,7.0
2016-12-26T07:55:04.176Z,7.0
2016-12-26T08:00:04.501Z,7.1
2016-12-26T08:05:04.475Z,7.4
2016-12-26T08:10:04.780Z,7.1
2016-12-26T08:15:04.451Z,7.1
2016-12-26T08:20:03.998Z,7.0
2016-12-26T08:25:04.554Z,7.0
2016-12-26T08:30:04.861Z,6.9
2016-12-26T08:35:05.074Z,6.9
2016-12-26T08:40:04.530Z,6.9
2016-12-26T08:45:04.919Z,6.6
2016-12-26T08:50:03.960Z,6.6
2016-12-26T08:55:04.823Z,6.5
2016-12-26T09:00:04.151Z,6.5
2016-12-26T09:05:04.321Z,6.5
2016-12-26T09:10:04.188Z,6.4
2016-12-26T09:15:04.765Z,6.1
2016-12-26T09:20:04.012Z,6.1
2016-12-26T09:25:04.365Z,6.1
2016-12-26T09:30:04.318Z,6.1
2016-12-26T09:35:04.124Z,6.0
2016-12-26T09:40:04.698Z,6.1
2016-12-26T09:45:04.824Z,6.0
2016-12-26T09:50:04.145Z,6.1
2016-12-26T09:55:04.425Z,6.0
2016-12-26T10:00:04.766Z,6.0
2016-12-26T10:05:04.416Z,6.0
2016-12-26T10:10:03.908Z,6.0
2016-12-26T10:15:04.774Z,6.0
2016-12-26T10:20:04.149Z,6.6
2016-12-26T10:25:04.532Z,6.5
2016-12-26T10:30:04.560Z,6.5
2016-12-26T10:35:04.180Z,6.6
2016-12-26T10:40:04.316Z,6.4
2016-12-26T10:45:04.784Z,6.9
2016-12-26T10:50:04.505Z,9.0
2016-12-26T10:55:04.230Z,8.8
2016-12-26T11:00:04.758Z,8.8
2016-12-26T11:05:04.439Z,8.8
2016-12-26T11:10:04.300Z,9.0
2016-12-26T11:15:04.709Z,8.5
2016-12-26T11:20:04.523Z,8.6
2016-12-26T11:25:04.879Z,8.6
2016-12-26T11:30:04.594Z,9.3
2016-12-26T11:35:04.720Z,9.3
2016-12-26T11:40:04.495Z,9.5
2016-12-26T11:45:05.054Z,9.0
2016-12-26T11:50:04.542Z,9.3
2016-12-26T11:55:04.834Z,9.3
2016-12-26T12:00:04.787Z,9.1
2016-12-26T12:05:04.343Z,9.1
2016-12-26T12:10:04.777Z,9.1
2016-12-26T12:15:04.948Z,9.3
2016-12-26T12:20:04.065Z,9.1
2016-12-26T12:25:04.125Z,9.0
2016-12-26T12:30:04.403Z,8.8
2016-12-26T12:35:04.690Z,9.0
2016-12-26T12:40:03.984Z,9.0
2016-12-26T12:45:04.819Z,9.0
2016-12-26T12:50:04.196Z,8.8
2016-12-26T12:55:03.943Z,9.0
2016-12-26T13:00:04.857Z,8.8
2016-12-26T13:05:04.257Z,9.0
2016-12-26T13:10:04.475Z,8.8
2016-12-26T13:15:04.735Z,8.8
2016-12-26T13:20:04.208Z,8.6
2016-12-26T13:25:04.342Z,8.5
2016-12-26T13:30:04.010Z,8.1
2016-12-26T13:35:04.386Z,8.0
2016-12-26T13:40:04.819Z,8.0
2016-12-26T13:45:04.169Z,8.0
2016-12-26T13:50:04.733Z,8.0
2016-12-26T13:55:04.242Z,8.0
2016-12-26T14:00:04.644Z,8.0
2016-12-26T14:05:04.314Z,7.9
2016-12-26T14:10:04.846Z,7.9
2016-12-26T14:15:04.906Z,7.9
2016-12-26T14:20:04.283Z,7.9
2016-12-26T14:25:03.989Z,8.0
2016-12-26T14:30:04.433Z,8.0
2016-12-26T14:35:04.267Z,7.6
2016-12-26T14:40:04.556Z,7.5
2016-12-26T14:45:04.680Z,7.5
2016-12-26T14:50:04.879Z,7.0
2016-12-26T14:55:04.044Z,7.1
2016-12-26T15:00:04.174Z,7.5
2016-12-26T15:05:04.039Z,7.1
2016-12-26T15:10:04.304Z,7.4
2016-12-26T15:15:04.935Z,7.1
2016-12-26T15:20:04.173Z,7.0
2016-12-26T15:25:04.677Z,6.9
2016-12-26T15:30:04.113Z,6.5
2016-12-26T15:35:04.460Z,6.1
2016-12-26T15:40:04.020Z,6.1
2016-12-26T15:45:04.811Z,6.0
2016-12-26T15:50:03.873Z,5.9
2016-12-26T15:55:04.979Z,5.9
2016-12-26T16:00:04.472Z,5.8
2016-12-26T16:05:04.710Z,5.8
2016-12-26T16:10:04.232Z,5.8
2016-12-26T16:15:04.516Z,5.8
2016-12-26T16:20:03.900Z,5.5
2016-12-26T16:25:04.550Z,5.8
2016-12-26T16:30:04.332Z,5.8
2016-12-26T16:35:04.272Z,5.5
2016-12-26T16:40:04.079Z,5.5
2016-12-26T16:45:04.662Z,5.5
2016-12-26T16:50:04.473Z,5.5
2016-12-26T16:55:04.180Z,5.5
2016-12-26T17:00:04.217Z,5.4
2016-12-26T17:05:04.770Z,5.4
2016-12-26T17:10:04.330Z,5.3
2016-12-26T17:15:04.231Z,5.3
2016-12-26T17:20:04.394Z,5.0
2016-12-26T17:25:04.354Z,5.0
2016-12-26T17:30:04.004Z,5.0
2016-12-26T17:35:03.953Z,5.0
2016-12-26T17:40:04.054Z,5.0
2016-12-26T17:45:04.509Z,5.0
2016-12-26T17:50:04.259Z,4.8
2016-12-26T17:55:04.471Z,5.0
2016-12-26T18:00:04.533Z,4.8
2016-12-26T18:05:04.899Z,4.5
2016-12-26T18:10:04.269Z,4.5
2016-12-26T18:15:03.974Z,4.8
2016-12-26T18:20:04.153Z,4.5
2016-12-26T18:25:04.885Z,4.5
2016-12-26T18:30:04.342Z,4.5
2016-12-26T18:35:04.506Z,4.5
2016-12-26T18:40:04.135Z,4.5
2016-12-26T18:45:04.774Z,4.5
2016-12-26T18:50:04.624Z,4.3
2016-12-26T18:55:04.707Z,4.3
2016-12-26T19:00:04.898Z,4.3
2016-12-26T19:05:04.278Z,4.3
2016-12-26T19:10:04.397Z,4.3
2016-12-26T19:15:04.020Z,4.3
2016-12-26T19:20:04.354Z,4.0
2016-12-26T19:25:04.268Z,4.3
2016-12-26T19:30:04.770Z,4.0
2016-12-26T19:35:03.952Z,4.0
2016-12-26T19:40:04.343Z,4.0
2016-12-26T19:45:04.226Z,4.0
2016-12-26T19:50:04.360Z,4.0
2016-12-26T19:55:04.465Z,4.0
2016-12-26T20:00:04.423Z,3.7
2016-12-26T20:05:03.974Z,3.5
2016-12-26T20:10:04.539Z,3.2
2016-12-26T20:15:04.699Z,3.2
2016-12-26T20:20:04.405Z,3.2
2016-12-26T20:25:04.858Z,3.2
2016-12-26T20:30:04.615Z,3.2
2016-12-26T20:35:04.779Z,3.2
2016-12-26T20:40:04.505Z,3.2
2016-12-26T20:45:03.977Z,3.2
2016-12-26T20:50:04.462Z,3.2
2016-12-26T20:55:04.747Z,3.2
2016-12-26T21:00:04.101Z,3.2
2016-12-26T21:05:04.534Z,3.2
2016-12-26T21:10:04.691Z,3.2
2016-12-26T21:15:04.141Z,3.0
2016-12-26T21:20:04.245Z,3.0
2016-12-26T21:25:04.618Z,3.0
2016-12-26T21:30:04.199Z,3.2
2016-12-26T21:35:04.264Z,3.5
2016-12-26T21:40:04.651Z,3.2
2016-12-26T21:45:04.375Z,3.2
2016-12-26T21:50:04.489Z,3.5
2016-12-26T21:55:04.957Z,3.5
2016-12-26T22:00:04.429Z,3.5
2016-12-26T22:05:04.712Z,3.5
2016-12-26T22:10:04.218Z,3.7
2016-12-26T22:15:04.867Z,3.7
2016-12-26T22:20:04.694Z,3.5
2016-12-26T22:25:03.967Z,3.2
2016-12-26T22:30:04.538Z,3.2
2016-12-26T22:35:03.946Z,3.2
2016-12-26T22:40:04.667Z,3.2
2016-12-26T22:45:03.983Z,3.2
2016-12-26T22:50:04.050Z,3.5
2016-12-26T22:55:04.407Z,3.2
2016-12-26T23:00:04.408Z,3.2
2016-12-26T23:05:04.505Z,3.2
2016-12-26T23:10:04.716Z,3.2
2016-12-26T23:15:04.599Z,3.2
2016-12-26T23:20:04.462Z,3.2
2016-12-26T23:25:04.643Z,3.2
2016-12-26T23:30:04.337Z,3.5
2016-12-26T23:35:04.386Z,3.2
2016-12-26T23:40:04.820Z,3.7
2016-12-26T23:45:04.470Z,3.7
2016-12-26T23:50:04.206Z,3.7
2016-12-26T23:55:04.434Z,3.7
